Home   Weather   Germany   Gaggenau   Past weeks
Flag for Germany

Past Weather in Gaggenau, Baden-Württemberg, Germany — Yesterday and Last 2 Weeks

Currently: 48 °F. Passing clouds. (Weather station: Karlsruhe - Baden Wurttemberg, Germany). See more current weather

Past Weather in Gaggenau — Graph

°F

Gaggenau Temperature Yesterday

Maximum temperature yesterday: 46 °F (at 2:20 pm)
Minimum temperature yesterday: 28 °F (at 5:50 am)
Average temperature yesterday: 37 °F

High & Low Weather Summary for the Past Weeks

 TemperatureHumidityPressure
High68 °F (Feb 24, 2:50 pm)100% (Feb 20, 9:50 pm)30.63 "Hg (Feb 20, 9:50 pm)
Low25 °F (Mar 7, 6:50 am)34% (Mar 6, 4:20 pm)29.98 "Hg (Feb 21, 4:50 pm)
Average44 °F74%30.35 "Hg
* Reported Feb 20 3:20 pm — Mar 7 3:20 pm, Gaggenau. Weather by CustomWeather, © 2021

Note: Actual official high and low records may vary slightly from our data, if they occured in-between our weather recording intervals... More about our weather records

Gaggenau Weather History for the Previous 24 Hours

Scroll right to see more
 ConditionsComfort  
Time TempWeatherWind HumidityBarometerVisibility
3:20 pm
Sun, Mar 7
48 °FPassing clouds.3 mph43%30.15 "HgN/A
2:50 pm46 °FPassing clouds.5 mph46%30.15 "HgN/A
2:20 pm46 °FSunny.3 mph43%30.15 "Hg10 mi
1:20 pm45 °FPassing clouds.6 mph49%30.18 "HgN/A
12:50 pm43 °FSunny.3 mph49%30.21 "Hg10 mi
12:20 pm43 °FSunny.3 mph53%30.21 "Hg10 mi
11:50 am41 °FPassing clouds.3 mph53%30.24 "HgN/A
11:20 am39 °FPassing clouds.3 mph56%30.24 "HgN/A
10:50 am37 °FPassing clouds.3 mph60%30.24 "HgN/A
10:20 am36 °FPassing clouds.5 mph65%30.24 "HgN/A
9:50 am34 °FPassing clouds.5 mph65%30.24 "HgN/A
9:20 am32 °FSunny.6 mph69%30.27 "Hg10 mi
8:20 am30 °FSunny.5 mph75%30.27 "Hg10 mi
7:50 am28 °FSunny.1 mph74%30.24 "Hg10 mi
7:20 am27 °FSunny.1 mph80%30.24 "Hg10 mi
6:50 am25 °FClear.No wind86%30.24 "Hg10 mi
6:20 am27 °FClear.No wind80%30.24 "Hg10 mi
5:50 am27 °FPassing clouds.No wind80%30.24 "HgN/A
5:20 am27 °FPassing clouds.No wind80%30.24 "HgN/A
4:50 am27 °FPassing clouds.1 mph80%30.24 "HgN/A
4:20 am27 °FPassing clouds.2 mph74%30.27 "HgN/A
3:50 am27 °FChilly.No wind80%30.27 "HgN/A
3:20 am27 °FChilly.No wind74%30.27 "HgN/A
2:50 am27 °FChilly.No wind74%30.30 "HgN/A
2:20 am27 °FChilly.No wind74%30.30 "HgN/A
1:50 am30 °FChilly.2 mph69%30.30 "HgN/A
1:20 am32 °FChilly.5 mph64%30.30 "HgN/A
12:50 am32 °FClear.7 mph64%30.33 "Hg10 mi
12:20 am32 °FClear.6 mph69%30.33 "Hg10 mi
11:50 pm
Sat, Mar 6
32 °FClear.8 mph64%30.33 "Hg10 mi
11:20 pm34 °FClear.8 mph60%30.33 "Hg10 mi
10:50 pm34 °FClear.10 mph60%30.33 "Hg10 mi
10:20 pm34 °FClear.10 mph60%30.33 "Hg10 mi
9:50 pm32 °FClear.8 mph64%30.33 "Hg10 mi
9:20 pm34 °FClear.8 mph60%30.33 "Hg10 mi
8:50 pm36 °FClear.7 mph56%30.33 "Hg10 mi
8:20 pm37 °FClear.9 mph52%30.36 "Hg10 mi
7:50 pm37 °FClear.9 mph52%30.36 "Hg10 mi
7:20 pm39 °FClear.10 mph48%30.36 "Hg10 mi
6:50 pm39 °FClear.9 mph45%30.36 "Hg10 mi
6:20 pm43 °FClear.13 mph39%30.36 "Hg10 mi
5:50 pm43 °FSunny.12 mph39%30.33 "Hg10 mi
5:20 pm46 °FSunny.16 mph37%30.33 "Hg10 mi
4:50 pm46 °FSunny.18 mph34%30.33 "Hg10 mi
4:20 pm46 °FSunny.20 mph34%30.36 "Hg10 mi
Weather by CustomWeather, © 2021

See weather overview